createdAt,value
2023-02-27T00:00:12.592Z,8
2023-02-27T00:01:29.459Z,6
2023-02-27T00:02:46.485Z,6
2023-02-27T00:04:03.507Z,6
2023-02-27T00:05:20.516Z,8
2023-02-27T00:06:37.428Z,8
2023-02-27T00:07:54.464Z,9
2023-02-27T00:09:11.461Z,8
2023-02-27T00:10:28.440Z,8
2023-02-27T00:11:45.443Z,8
2023-02-27T00:13:02.449Z,9
2023-02-27T00:14:19.490Z,9
2023-02-27T00:15:36.583Z,9
2023-02-27T00:16:53.450Z,10
2023-02-27T00:18:10.529Z,10
2023-02-27T00:19:27.550Z,11
2023-02-27T00:20:44.474Z,11
2023-02-27T00:22:01.444Z,11
2023-02-27T00:23:18.454Z,10
2023-02-27T00:24:35.489Z,9
2023-02-27T00:25:52.493Z,11
2023-02-27T00:27:09.451Z,9
2023-02-27T00:28:26.462Z,8
2023-02-27T00:29:43.498Z,8
2023-02-27T00:31:00.699Z,8
2023-02-27T00:32:17.519Z,6
2023-02-27T00:33:34.502Z,6
2023-02-27T00:34:51.460Z,8
2023-02-27T00:36:08.531Z,8
2023-02-27T00:37:25.463Z,8
2023-02-27T00:38:42.473Z,8
2023-02-27T00:39:59.465Z,8
2023-02-27T00:41:16.655Z,8
2023-02-27T00:42:33.506Z,9
2023-02-27T00:43:50.507Z,8
2023-02-27T00:45:07.590Z,8
2023-02-27T00:46:24.619Z,8
2023-02-27T00:47:41.482Z,8
2023-02-27T00:48:58.488Z,8
2023-02-27T00:50:15.510Z,8
2023-02-27T00:51:32.500Z,8
2023-02-27T00:52:49.520Z,6
2023-02-27T00:54:06.505Z,6
2023-02-27T00:55:24.844Z,9
2023-02-27T00:56:40.548Z,8
2023-02-27T00:57:57.504Z,8
2023-02-27T00:59:14.524Z,6
2023-02-27T01:00:31.576Z,6
2023-02-27T01:01:48.575Z,6
2023-02-27T01:03:05.508Z,6
2023-02-27T01:04:22.521Z,6
2023-02-27T01:05:39.543Z,8
2023-02-27T01:06:56.503Z,6
2023-02-27T01:08:13.505Z,6
2023-02-27T01:09:30.498Z,6
2023-02-27T01:10:47.558Z,6
2023-02-27T01:12:04.508Z,6
2023-02-27T01:13:21.516Z,8
2023-02-27T01:14:38.542Z,9
2023-02-27T01:15:55.560Z,9
2023-02-27T01:17:12.598Z,9
2023-02-27T01:18:29.534Z,10
2023-02-27T01:19:46.538Z,10
2023-02-27T01:21:03.552Z,10
2023-02-27T01:22:20.557Z,10
2023-02-27T01:23:37.557Z,10
2023-02-27T01:24:54.559Z,9
2023-02-27T01:26:11.559Z,9
2023-02-27T01:27:28.600Z,9
2023-02-27T01:28:45.527Z,9
2023-02-27T01:30:02.559Z,8
2023-02-27T01:31:19.631Z,6
2023-02-27T01:32:36.674Z,8
2023-02-27T01:33:53.544Z,9
2023-02-27T01:35:10.544Z,8
2023-02-27T01:36:27.585Z,8
2023-02-27T01:37:44.547Z,8
2023-02-27T01:39:01.555Z,8
2023-02-27T01:40:18.595Z,8
2023-02-27T01:41:35.621Z,8
2023-02-27T01:42:52.558Z,8
2023-02-27T01:44:09.547Z,8
2023-02-27T01:45:26.548Z,6
2023-02-27T01:46:43.582Z,6
2023-02-27T01:48:00.577Z,6
2023-02-27T01:49:17.614Z,5
2023-02-27T01:50:34.569Z,5
2023-02-27T01:51:51.552Z,5
2023-02-27T01:53:08.568Z,5
2023-02-27T01:54:25.606Z,5
2023-02-27T01:55:42.659Z,6
2023-02-27T01:56:59.599Z,6
2023-02-27T01:58:16.595Z,6
2023-02-27T01:59:33.569Z,6
2023-02-27T02:00:50.659Z,6
2023-02-27T02:02:07.620Z,5
2023-02-27T02:03:24.609Z,5
2023-02-27T02:04:41.593Z,5
2023-02-27T02:05:58.620Z,5
2023-02-27T02:07:15.657Z,5
2023-02-27T02:08:32.597Z,5
2023-02-27T02:09:49.585Z,5
2023-02-27T02:11:06.601Z,6
2023-02-27T02:12:23.611Z,6
2023-02-27T02:13:40.598Z,6
2023-02-27T02:14:57.582Z,5
2023-02-27T02:16:14.621Z,4
2023-02-27T02:17:31.640Z,4
2023-02-27T02:18:48.604Z,5
2023-02-27T02:20:05.708Z,5
2023-02-27T02:21:22.621Z,4
2023-02-27T02:22:39.675Z,4
2023-02-27T02:23:56.604Z,4
2023-02-27T02:25:13.622Z,4
2023-02-27T02:26:33.128Z,3
2023-02-27T02:27:47.680Z,3
2023-02-27T02:29:04.604Z,4
2023-02-27T02:30:21.648Z,4
2023-02-27T02:31:38.734Z,5
2023-02-27T02:32:55.661Z,5
2023-02-27T02:34:12.698Z,5
2023-02-27T02:35:29.643Z,5
2023-02-27T02:36:46.630Z,5
2023-02-27T02:38:03.633Z,5
2023-02-27T02:39:20.664Z,5
2023-02-27T02:40:37.650Z,5
2023-02-27T02:41:54.628Z,4
2023-02-27T02:43:11.671Z,4
2023-02-27T02:44:28.622Z,4
2023-02-27T02:45:45.722Z,4
2023-02-27T02:47:02.651Z,4
2023-02-27T02:48:19.661Z,4
2023-02-27T02:49:36.689Z,3
2023-02-27T02:50:53.685Z,3
2023-02-27T02:52:10.635Z,3
2023-02-27T02:53:36.013Z,3
2023-02-27T02:54:44.703Z,3
2023-02-27T02:56:01.666Z,3
2023-02-27T02:57:18.674Z,4
2023-02-27T02:58:35.639Z,3
2023-02-27T02:59:52.704Z,3
2023-02-27T03:01:09.660Z,3
2023-02-27T03:02:26.660Z,3
2023-02-27T03:03:43.661Z,3
2023-02-27T03:05:00.734Z,3
2023-02-27T03:06:17.723Z,2
2023-02-27T03:07:34.735Z,2
2023-02-27T03:08:51.650Z,2
2023-02-27T03:10:08.660Z,2
2023-02-27T03:11:26.092Z,2
2023-02-27T03:12:42.740Z,3
2023-02-27T03:13:59.678Z,2
2023-02-27T03:15:16.701Z,2
2023-02-27T03:16:33.711Z,2
2023-02-27T03:17:50.666Z,2
2023-02-27T03:19:07.666Z,1
2023-02-27T03:20:24.735Z,1
2023-02-27T03:21:41.700Z,1
2023-02-27T03:22:58.691Z,2
2023-02-27T03:24:15.668Z,2
2023-02-27T03:25:32.691Z,2
2023-02-27T03:26:49.842Z,2
2023-02-27T03:28:06.765Z,2
2023-02-27T03:29:23.692Z,3
2023-02-27T03:30:40.887Z,3
2023-02-27T03:31:57.737Z,3
2023-02-27T03:33:14.723Z,4
2023-02-27T03:34:31.691Z,3
2023-02-27T03:35:48.732Z,3
2023-02-27T03:37:05.680Z,3
2023-02-27T03:38:22.744Z,2
2023-02-27T03:39:39.777Z,3
2023-02-27T03:40:56.713Z,2
2023-02-27T03:42:13.740Z,2
2023-02-27T03:43:30.777Z,3
2023-02-27T03:44:47.725Z,3
2023-02-27T03:46:04.756Z,3
2023-02-27T03:47:21.751Z,3
2023-02-27T03:48:38.767Z,3
2023-02-27T03:49:55.696Z,3
2023-02-27T03:51:12.768Z,3
2023-02-27T03:52:29.704Z,3
2023-02-27T03:53:46.762Z,4
2023-02-27T03:55:03.771Z,4
2023-02-27T03:56:20.730Z,4
2023-02-27T03:57:37.723Z,4
2023-02-27T03:58:54.709Z,4
2023-02-27T04:00:11.739Z,5
2023-02-27T04:01:29.028Z,5
2023-02-27T04:02:45.742Z,4
2023-02-27T04:04:02.729Z,5
2023-02-27T04:05:19.734Z,5
2023-02-27T04:06:36.769Z,5
2023-02-27T04:07:53.738Z,6
2023-02-27T04:09:10.716Z,6
2023-02-27T04:10:27.734Z,5
2023-02-27T04:11:44.719Z,4
2023-02-27T04:13:02.459Z,4
2023-02-27T04:14:19.741Z,5
2023-02-27T04:15:36.780Z,4
2023-02-27T04:16:53.744Z,4
2023-02-27T04:18:10.817Z,4
2023-02-27T04:19:27.760Z,3
2023-02-27T04:20:44.756Z,3
2023-02-27T04:22:01.768Z,3
2023-02-27T04:23:18.769Z,4
2023-02-27T04:24:35.788Z,4
2023-02-27T04:25:52.737Z,4
2023-02-27T04:27:09.746Z,3
2023-02-27T04:28:26.785Z,3
2023-02-27T04:29:43.770Z,3
2023-02-27T04:31:00.850Z,3
2023-02-27T04:32:17.881Z,3
2023-02-27T04:33:34.786Z,3
2023-02-27T04:34:51.787Z,3
2023-02-27T04:36:08.773Z,3
2023-02-27T04:37:25.829Z,3
2023-02-27T04:38:42.788Z,3
2023-02-27T04:39:59.794Z,3
2023-02-27T04:41:16.808Z,2
2023-02-27T04:42:33.799Z,2
2023-02-27T04:43:50.858Z,2
2023-02-27T04:45:07.814Z,2
2023-02-27T04:46:24.786Z,3
2023-02-27T04:47:41.787Z,2
2023-02-27T04:48:58.841Z,3
2023-02-27T04:50:15.810Z,3
2023-02-27T04:51:32.773Z,3
2023-02-27T04:52:49.845Z,3
2023-02-27T04:54:06.784Z,4
2023-02-27T04:55:23.790Z,4
2023-02-27T04:56:40.801Z,4
2023-02-27T04:57:57.846Z,4
2023-02-27T04:59:14.842Z,4
2023-02-27T05:00:31.795Z,4
2023-02-27T05:01:48.930Z,4
2023-02-27T05:03:05.806Z,4
2023-02-27T05:04:22.830Z,4
2023-02-27T05:05:39.805Z,6
2023-02-27T05:06:56.806Z,8
2023-02-27T05:08:13.828Z,8
2023-02-27T05:09:30.824Z,9
2023-02-27T05:10:47.817Z,9
2023-02-27T05:12:04.852Z,9
2023-02-27T05:13:21.826Z,9
2023-02-27T05:14:38.842Z,8
2023-02-27T05:15:55.842Z,6
2023-02-27T05:17:12.835Z,6
2023-02-27T05:18:29.814Z,6
2023-02-27T05:19:46.925Z,6
2023-02-27T05:21:03.839Z,5
2023-02-27T05:22:20.835Z,6
2023-02-27T05:23:37.877Z,5
2023-02-27T05:24:54.857Z,5
2023-02-27T05:26:11.836Z,6
2023-02-27T05:27:28.832Z,6
2023-02-27T05:28:45.825Z,6
2023-02-27T05:30:02.978Z,8
2023-02-27T05:31:19.907Z,8
2023-02-27T05:32:36.894Z,6
2023-02-27T05:33:53.836Z,6
2023-02-27T05:35:10.878Z,6
2023-02-27T05:36:27.864Z,6
2023-02-27T05:37:44.857Z,5
2023-02-27T05:39:01.878Z,5
2023-02-27T05:40:18.915Z,5
2023-02-27T05:41:35.844Z,5
2023-02-27T05:42:52.844Z,5
2023-02-27T05:44:09.845Z,4
2023-02-27T05:45:26.890Z,4
2023-02-27T05:46:43.869Z,4
2023-02-27T05:48:00.882Z,4
2023-02-27T05:49:17.847Z,3
2023-02-27T05:50:34.907Z,4
2023-02-27T05:51:53.155Z,4
2023-02-27T05:53:09.885Z,4
2023-02-27T05:54:26.906Z,4
2023-02-27T05:55:43.929Z,5
2023-02-27T05:57:00.887Z,5
2023-02-27T05:58:17.913Z,9
2023-02-27T05:59:34.860Z,10
2023-02-27T06:00:51.913Z,10
2023-02-27T06:02:08.924Z,12
2023-02-27T06:03:26.045Z,12
2023-02-27T06:04:42.882Z,12
2023-02-27T06:05:59.874Z,10
2023-02-27T06:07:16.864Z,10
2023-02-27T06:08:33.982Z,10
2023-02-27T06:09:50.903Z,9
2023-02-27T06:11:07.905Z,9
2023-02-27T06:12:24.890Z,10
2023-02-27T06:13:42.339Z,11
2023-02-27T06:14:58.892Z,11
2023-02-27T06:16:15.974Z,12
2023-02-27T06:17:32.939Z,11
2023-02-27T06:18:49.946Z,12
2023-02-27T06:20:06.924Z,14
2023-02-27T06:21:23.923Z,17
2023-02-27T06:22:41.005Z,17
2023-02-27T06:23:57.917Z,17
2023-02-27T06:25:15.009Z,18
2023-02-27T06:26:32.029Z,17
2023-02-27T06:27:48.926Z,14
2023-02-27T06:29:05.923Z,12
2023-02-27T06:30:22.938Z,11
2023-02-27T06:31:39.968Z,10
2023-02-27T06:32:56.930Z,10
2023-02-27T06:34:14.028Z,10
2023-02-27T06:35:30.933Z,10
2023-02-27T06:36:47.968Z,10
2023-02-27T06:38:04.941Z,10
2023-02-27T06:39:21.917Z,9
2023-02-27T06:40:39.036Z,10
2023-02-27T06:41:55.927Z,10
2023-02-27T06:43:12.949Z,10
2023-02-27T06:44:29.970Z,10
2023-02-27T06:45:46.975Z,10
2023-02-27T06:47:03.968Z,9
2023-02-27T06:48:20.937Z,9
2023-02-27T06:49:38.289Z,9
2023-02-27T06:50:55.037Z,9
2023-02-27T06:52:12.199Z,9
2023-02-27T06:53:28.945Z,9
2023-02-27T06:54:46.056Z,10
2023-02-27T06:56:02.961Z,10
2023-02-27T06:57:20.001Z,10
2023-02-27T06:58:36.962Z,11
2023-02-27T06:59:53.957Z,10
2023-02-27T07:01:10.955Z,14
2023-02-27T07:02:28.006Z,14
2023-02-27T07:03:45.018Z,13
2023-02-27T07:05:07.714Z,13
2023-02-27T07:06:18.952Z,14
2023-02-27T07:07:37.620Z,12
2023-02-27T07:08:54.109Z,11
2023-02-27T07:10:09.967Z,11
2023-02-27T07:11:26.974Z,11
2023-02-27T07:12:43.979Z,12
2023-02-27T07:14:00.982Z,16
2023-02-27T07:15:17.965Z,13
2023-02-27T07:16:34.951Z,17
2023-02-27T07:17:52.024Z,18
2023-02-27T07:19:08.967Z,18
2023-02-27T07:20:25.974Z,16
2023-02-27T07:21:42.964Z,17
2023-02-27T07:23:00.018Z,13
2023-02-27T07:24:16.975Z,11
2023-02-27T07:25:33.973Z,11
2023-02-27T07:26:51.067Z,11
2023-02-27T07:28:08.082Z,14
2023-02-27T07:29:24.971Z,14
2023-02-27T07:30:41.989Z,14
2023-02-27T07:31:59.005Z,16
2023-02-27T07:33:16.089Z,13
2023-02-27T07:34:33.057Z,17
2023-02-27T07:35:50.040Z,17
2023-02-27T07:37:07.031Z,16
2023-02-27T07:38:24.066Z,16
2023-02-27T07:39:41.071Z,13
2023-02-27T07:40:57.989Z,14
2023-02-27T07:42:15.039Z,17
2023-02-27T07:43:32.044Z,27
2023-02-27T07:44:49.130Z,20
2023-02-27T07:46:06.134Z,16
2023-02-27T07:47:23.092Z,12
2023-02-27T07:48:40.040Z,12
2023-02-27T07:49:57.030Z,16
2023-02-27T07:51:13.997Z,12
2023-02-27T07:53:48.008Z,23
2023-02-27T07:55:05.039Z,35
2023-02-27T07:56:22.100Z,51
2023-02-27T07:57:39.080Z,50
2023-02-27T07:58:56.109Z,35
2023-02-27T08:00:13.037Z,35
2023-02-27T08:01:30.059Z,14
2023-02-27T08:02:47.168Z,20
2023-02-27T08:04:04.028Z,13
2023-02-27T08:05:21.123Z,12
2023-02-27T08:06:38.019Z,11
2023-02-27T08:07:55.104Z,10
2023-02-27T08:09:12.034Z,10
2023-02-27T08:10:29.184Z,10
2023-02-27T08:11:48.857Z,10
2023-02-27T08:13:03.173Z,10
2023-02-27T08:14:20.057Z,13
2023-02-27T08:15:37.199Z,14
2023-02-27T08:16:54.253Z,13
2023-02-27T08:18:11.282Z,11
2023-02-27T08:19:28.108Z,12
2023-02-27T08:20:45.056Z,13
2023-02-27T08:22:02.121Z,12
2023-02-27T08:23:19.097Z,12
2023-02-27T08:24:36.267Z,14
2023-02-27T08:25:53.045Z,14
2023-02-27T08:27:10.077Z,16
2023-02-27T08:28:27.262Z,12
2023-02-27T08:29:44.155Z,12
2023-02-27T08:31:01.160Z,11
2023-02-27T08:32:18.107Z,9
2023-02-27T08:33:35.125Z,6
2023-02-27T08:34:52.103Z,6
2023-02-27T08:36:09.097Z,5
2023-02-27T08:37:26.166Z,6
2023-02-27T08:38:43.073Z,9
2023-02-27T08:40:00.187Z,12
2023-02-27T08:41:17.100Z,11
2023-02-27T08:42:34.080Z,12
2023-02-27T08:43:51.090Z,12
2023-02-27T08:45:08.241Z,11
2023-02-27T08:46:25.355Z,14
2023-02-27T08:47:42.134Z,31
2023-02-27T08:48:59.209Z,32
2023-02-27T08:50:16.331Z,21
2023-02-27T08:51:33.316Z,21
2023-02-27T08:52:50.089Z,12
2023-02-27T08:54:07.085Z,13
2023-02-27T08:55:24.153Z,18
2023-02-27T08:56:41.131Z,23
2023-02-27T08:57:58.160Z,19
2023-02-27T08:59:15.274Z,13
2023-02-27T09:00:32.191Z,4
2023-02-27T09:01:49.094Z,4
2023-02-27T09:03:06.143Z,2
2023-02-27T09:04:23.111Z,1
2023-02-27T09:05:40.148Z,1
2023-02-27T09:06:57.108Z,1
2023-02-27T09:08:14.133Z,0
2023-02-27T09:09:31.123Z,0
2023-02-27T09:10:48.109Z,0
2023-02-27T09:12:05.130Z,6
2023-02-27T09:13:22.139Z,4
2023-02-27T09:14:39.138Z,4
2023-02-27T09:15:56.104Z,5
2023-02-27T09:17:13.132Z,4
2023-02-27T09:18:30.174Z,4
2023-02-27T09:19:47.156Z,12
2023-02-27T09:21:04.214Z,14
2023-02-27T09:22:21.131Z,11
2023-02-27T09:23:38.290Z,3
2023-02-27T09:24:55.186Z,2
2023-02-27T09:26:12.141Z,2
2023-02-27T09:27:29.140Z,2
2023-02-27T09:28:46.155Z,2
2023-02-27T09:30:03.207Z,3
2023-02-27T09:31:20.172Z,6
2023-02-27T09:32:37.204Z,23
2023-02-27T09:33:54.212Z,39
2023-02-27T09:35:11.159Z,15
2023-02-27T09:36:28.539Z,9
2023-02-27T09:37:45.175Z,9
2023-02-27T09:39:02.165Z,6
2023-02-27T09:40:19.169Z,8
2023-02-27T09:41:36.154Z,8
2023-02-27T09:42:53.174Z,3
2023-02-27T09:44:10.170Z,1
2023-02-27T09:45:27.258Z,1
2023-02-27T09:46:44.149Z,2
2023-02-27T09:48:01.151Z,8
2023-02-27T09:49:18.184Z,11
2023-02-27T09:50:35.189Z,9
2023-02-27T09:51:53.414Z,8
2023-02-27T09:53:09.171Z,6
2023-02-27T09:54:26.195Z,3
2023-02-27T09:55:43.165Z,4
2023-02-27T09:57:00.172Z,4
2023-02-27T09:58:17.167Z,6
2023-02-27T09:59:34.200Z,8
2023-02-27T10:00:51.217Z,8
2023-02-27T10:02:08.246Z,9
2023-02-27T10:03:25.351Z,4
2023-02-27T10:04:42.169Z,13
2023-02-27T10:05:59.308Z,4
2023-02-27T10:07:16.197Z,3
2023-02-27T10:08:33.197Z,10
2023-02-27T10:09:50.213Z,8
2023-02-27T10:11:07.165Z,9
2023-02-27T10:12:24.780Z,9
2023-02-27T10:13:42.209Z,9
2023-02-27T10:14:59.202Z,11
2023-02-27T10:16:16.744Z,12
2023-02-27T10:17:33.195Z,14
2023-02-27T10:18:50.189Z,12
2023-02-27T10:20:07.382Z,10
2023-02-27T10:21:24.230Z,8
2023-02-27T10:22:41.200Z,10
2023-02-27T10:23:58.214Z,5
2023-02-27T10:25:30.084Z,5
2023-02-27T10:26:32.286Z,3
2023-02-27T10:27:49.221Z,3
2023-02-27T10:29:06.217Z,1
2023-02-27T10:30:29.154Z,1
2023-02-27T10:31:40.295Z,0
2023-02-27T10:32:57.231Z,1
2023-02-27T10:34:14.240Z,2
2023-02-27T10:35:31.241Z,1
2023-02-27T10:36:48.819Z,3
2023-02-27T10:38:05.222Z,1
2023-02-27T10:39:22.282Z,1
2023-02-27T10:40:39.231Z,1
2023-02-27T10:41:56.240Z,1
2023-02-27T10:43:13.230Z,0
2023-02-27T10:44:30.276Z,0
2023-02-27T10:45:47.244Z,0
2023-02-27T10:47:04.297Z,0
2023-02-27T10:48:21.226Z,0
2023-02-27T10:49:38.229Z,0
2023-02-27T10:50:55.253Z,0
2023-02-27T10:52:12.239Z,0
2023-02-27T10:53:29.244Z,0
2023-02-27T10:54:46.323Z,0
2023-02-27T10:56:03.828Z,0
2023-02-27T10:57:21.268Z,0
2023-02-27T10:58:38.269Z,0
2023-02-27T10:59:55.396Z,0
2023-02-27T11:01:12.321Z,0
2023-02-27T11:02:29.366Z,4
2023-02-27T11:03:46.294Z,4
2023-02-27T11:05:03.284Z,3
2023-02-27T11:06:20.250Z,1
2023-02-27T11:07:37.244Z,0
2023-02-27T11:08:54.296Z,0
2023-02-27T11:10:11.346Z,0
2023-02-27T11:11:30.085Z,0
2023-02-27T11:12:47.331Z,0
2023-02-27T11:14:04.577Z,1
2023-02-27T11:15:21.308Z,3
2023-02-27T11:16:38.303Z,8
2023-02-27T11:17:55.442Z,8
2023-02-27T11:19:14.410Z,9
2023-02-27T11:20:29.335Z,6
2023-02-27T11:21:46.381Z,6
2023-02-27T11:23:03.386Z,9
2023-02-27T11:24:20.594Z,9
2023-02-27T11:25:37.278Z,8
2023-02-27T11:26:54.319Z,8
2023-02-27T11:28:11.356Z,10
2023-02-27T11:29:28.310Z,11
2023-02-27T11:30:45.371Z,11
2023-02-27T11:32:02.377Z,8
2023-02-27T11:33:19.565Z,5
2023-02-27T11:34:36.505Z,5
2023-02-27T11:35:55.937Z,3
2023-02-27T11:37:10.580Z,4
2023-02-27T11:38:27.310Z,4
2023-02-27T11:39:45.023Z,4
2023-02-27T11:41:01.315Z,5
2023-02-27T11:42:18.346Z,5
2023-02-27T11:43:35.340Z,5
2023-02-27T11:44:52.392Z,5
2023-02-27T11:46:22.982Z,5
2023-02-27T11:47:26.380Z,5
2023-02-27T11:48:43.418Z,8
2023-02-27T11:50:00.437Z,6
2023-02-27T11:51:17.327Z,8
2023-02-27T11:52:35.138Z,9
2023-02-27T11:53:52.346Z,11
2023-02-27T11:55:09.345Z,12
2023-02-27T11:56:26.323Z,12
2023-02-27T11:57:43.323Z,11
2023-02-27T11:59:03.649Z,10
2023-02-27T12:00:20.355Z,10
2023-02-27T12:01:37.343Z,10
2023-02-27T12:02:54.856Z,9
2023-02-27T12:04:11.461Z,6
2023-02-27T12:05:28.341Z,6
2023-02-27T12:06:45.346Z,7
2023-02-27T12:08:02.366Z,9
2023-02-27T12:09:19.718Z,10
2023-02-27T12:10:36.345Z,11
2023-02-27T12:11:53.360Z,11
2023-02-27T12:13:10.352Z,12
2023-02-27T12:14:27.395Z,11
2023-02-27T12:15:44.384Z,11
2023-02-27T12:17:01.357Z,11
2023-02-27T12:18:18.363Z,10
2023-02-27T12:19:35.433Z,6
2023-02-27T12:20:52.388Z,9
2023-02-27T12:22:09.370Z,11
2023-02-27T12:23:26.394Z,11
2023-02-27T12:24:43.400Z,13
2023-02-27T12:26:00.378Z,14
2023-02-27T12:27:17.477Z,14
2023-02-27T12:28:34.531Z,13
2023-02-27T12:29:51.379Z,13
2023-02-27T12:31:08.439Z,14
2023-02-27T12:32:25.624Z,18
2023-02-27T12:33:42.404Z,25
2023-02-27T12:34:59.463Z,11
2023-02-27T12:36:16.353Z,13
2023-02-27T12:37:33.401Z,13
2023-02-27T12:38:50.370Z,11
2023-02-27T12:40:08.409Z,10
2023-02-27T12:41:25.509Z,9
2023-02-27T12:42:42.396Z,8
2023-02-27T12:43:59.379Z,8
2023-02-27T12:45:16.427Z,11
2023-02-27T12:46:33.413Z,8
2023-02-27T12:47:50.432Z,6
2023-02-27T12:49:08.218Z,6
2023-02-27T12:50:24.533Z,6
2023-02-27T12:51:41.414Z,5
2023-02-27T12:52:58.373Z,5
2023-02-27T12:54:15.367Z,5
2023-02-27T12:55:32.452Z,5
2023-02-27T12:56:49.391Z,8
2023-02-27T12:58:06.449Z,8
2023-02-27T12:59:23.390Z,8
2023-02-27T13:00:40.459Z,8
2023-02-27T13:01:57.419Z,6
2023-02-27T13:03:14.427Z,8
2023-02-27T13:04:31.401Z,8
2023-02-27T13:05:48.436Z,9
2023-02-27T13:07:05.394Z,11
2023-02-27T13:08:22.457Z,10
2023-02-27T13:09:39.410Z,11
2023-02-27T13:10:56.465Z,12
2023-02-27T13:12:13.479Z,14
2023-02-27T13:13:30.414Z,14
2023-02-27T13:14:47.419Z,11
2023-02-27T13:16:04.442Z,12
2023-02-27T13:17:21.452Z,13
2023-02-27T13:18:38.443Z,13
2023-02-27T13:19:55.439Z,14
2023-02-27T13:21:12.487Z,13
2023-02-27T13:22:29.470Z,13
2023-02-27T13:23:46.486Z,12
2023-02-27T13:25:03.444Z,12
2023-02-27T13:26:20.491Z,10
2023-02-27T13:27:37.492Z,9
2023-02-27T13:28:54.448Z,9
2023-02-27T13:30:11.599Z,10
2023-02-27T13:31:28.744Z,10
2023-02-27T13:32:45.616Z,12
2023-02-27T13:34:02.470Z,12
2023-02-27T13:35:19.435Z,12
2023-02-27T13:36:36.559Z,12
2023-02-27T13:37:53.523Z,12
2023-02-27T13:39:10.461Z,13
2023-02-27T13:40:27.479Z,16
2023-02-27T13:41:44.509Z,16
2023-02-27T13:43:01.508Z,19
2023-02-27T13:44:18.577Z,19
2023-02-27T13:45:35.532Z,20
2023-02-27T13:46:52.497Z,20
2023-02-27T13:48:09.467Z,12
2023-02-27T13:49:29.453Z,12
2023-02-27T13:50:43.533Z,12
2023-02-27T13:52:00.497Z,12
2023-02-27T13:53:17.492Z,13
2023-02-27T13:54:34.495Z,14
2023-02-27T13:55:51.471Z,17
2023-02-27T13:57:08.467Z,16
2023-02-27T13:58:25.480Z,16
2023-02-27T13:59:42.562Z,16
2023-02-27T14:00:59.536Z,13
2023-02-27T14:02:16.489Z,12
2023-02-27T14:03:33.475Z,11
2023-02-27T14:04:50.552Z,11
2023-02-27T14:06:07.566Z,11
2023-02-27T14:07:24.646Z,12
2023-02-27T14:08:41.486Z,12
2023-02-27T14:09:58.616Z,13
2023-02-27T14:11:15.488Z,14
2023-02-27T14:12:43.906Z,14
2023-02-27T14:13:49.497Z,14
2023-02-27T14:15:06.546Z,18
2023-02-27T14:16:23.585Z,18
2023-02-27T14:17:40.545Z,18
2023-02-27T14:18:57.517Z,17
2023-02-27T14:20:14.498Z,17
2023-02-27T14:21:31.512Z,16
2023-02-27T14:22:48.619Z,17
2023-02-27T14:24:05.523Z,18
2023-02-27T14:25:22.543Z,13
2023-02-27T14:26:39.523Z,24
2023-02-27T14:27:59.677Z,25
2023-02-27T14:29:23.611Z,24
2023-02-27T14:30:40.591Z,18
2023-02-27T14:31:57.508Z,18
2023-02-27T14:33:14.551Z,18
2023-02-27T14:34:31.631Z,29
2023-02-27T14:35:48.606Z,21
2023-02-27T14:37:05.535Z,39
2023-02-27T14:38:22.822Z,19
2023-02-27T14:39:39.836Z,12
2023-02-27T14:40:56.565Z,6
2023-02-27T14:42:13.929Z,5
2023-02-27T14:43:30.572Z,4
2023-02-27T14:44:47.612Z,3
2023-02-27T14:46:04.737Z,4
2023-02-27T14:47:21.544Z,4
2023-02-27T14:48:38.817Z,4
2023-02-27T14:49:55.758Z,8
2023-02-27T14:51:12.572Z,9
2023-02-27T14:52:29.740Z,8
2023-02-27T14:53:46.594Z,8
2023-02-27T14:55:03.692Z,6
2023-02-27T14:56:20.594Z,5
2023-02-27T14:57:37.590Z,6
2023-02-27T14:59:03.560Z,5
2023-02-27T15:00:11.654Z,5
2023-02-27T15:01:29.072Z,5
2023-02-27T15:02:45.573Z,5
2023-02-27T15:04:02.724Z,5
2023-02-27T15:05:19.612Z,5
2023-02-27T15:06:37.149Z,4
2023-02-27T15:07:53.665Z,5
2023-02-27T15:09:10.623Z,4
2023-02-27T15:10:27.592Z,4
2023-02-27T15:11:48.848Z,5
2023-02-27T15:13:01.581Z,6
2023-02-27T15:14:18.617Z,6
2023-02-27T15:15:35.650Z,5
2023-02-27T15:16:55.340Z,5
2023-02-27T15:18:09.629Z,8
2023-02-27T15:19:26.678Z,9
2023-02-27T15:20:43.602Z,8
2023-02-27T15:22:00.624Z,11
2023-02-27T15:23:17.800Z,12
2023-02-27T15:24:47.711Z,5
2023-02-27T15:25:51.629Z,6
2023-02-27T15:27:08.605Z,6
2023-02-27T15:28:25.678Z,3
2023-02-27T15:29:42.658Z,4
2023-02-27T15:30:59.652Z,3
2023-02-27T15:32:16.674Z,5
2023-02-27T15:33:33.669Z,4
2023-02-27T15:34:50.610Z,3
2023-02-27T15:36:07.640Z,1
2023-02-27T15:37:25.347Z,2
2023-02-27T15:38:42.638Z,2
2023-02-27T15:39:59.684Z,2
2023-02-27T15:41:16.674Z,2
2023-02-27T15:42:33.674Z,3
2023-02-27T15:43:50.629Z,1
2023-02-27T15:45:07.679Z,1
2023-02-27T15:46:25.007Z,1
2023-02-27T15:47:43.895Z,1
2023-02-27T15:48:58.619Z,5
2023-02-27T15:50:15.637Z,5
2023-02-27T15:51:32.679Z,4
2023-02-27T15:52:49.613Z,3
2023-02-27T15:54:07.014Z,2
2023-02-27T15:55:23.698Z,1
2023-02-27T15:56:40.665Z,1
2023-02-27T15:58:03.021Z,2
2023-02-27T15:59:14.739Z,2
2023-02-27T16:00:31.657Z,4
2023-02-27T16:01:48.710Z,4
2023-02-27T16:03:05.736Z,3
2023-02-27T16:04:22.638Z,3
2023-02-27T16:05:39.656Z,4
2023-02-27T16:06:56.651Z,5
2023-02-27T16:08:14.839Z,5
2023-02-27T16:09:32.697Z,4
2023-02-27T16:10:49.719Z,5
2023-02-27T16:12:06.876Z,5
2023-02-27T16:13:23.720Z,5
2023-02-27T16:14:40.677Z,5
2023-02-27T16:15:57.721Z,7
2023-02-27T16:17:14.691Z,8
2023-02-27T16:18:32.731Z,8
2023-02-27T16:19:49.801Z,8
2023-02-27T16:21:06.688Z,6
2023-02-27T16:22:23.708Z,6
2023-02-27T16:23:40.700Z,8
2023-02-27T16:24:57.669Z,8
2023-02-27T16:26:14.697Z,8
2023-02-27T16:27:31.670Z,10
2023-02-27T16:28:48.810Z,9
2023-02-27T16:30:05.691Z,8
2023-02-27T16:31:22.670Z,6
2023-02-27T16:32:39.756Z,6
2023-02-27T16:33:56.720Z,8
2023-02-27T16:35:13.693Z,13
2023-02-27T16:36:31.107Z,25
2023-02-27T16:37:47.712Z,29
2023-02-27T16:39:04.703Z,27
2023-02-27T16:40:22.692Z,22
2023-02-27T16:41:39.739Z,13
2023-02-27T16:42:56.700Z,11
2023-02-27T16:44:13.727Z,10
2023-02-27T16:45:30.725Z,10
2023-02-27T16:46:47.755Z,11
2023-02-27T16:48:04.731Z,11
2023-02-27T16:49:21.689Z,11
2023-02-27T16:50:38.740Z,10
2023-02-27T16:51:55.695Z,12
2023-02-27T16:53:12.694Z,19
2023-02-27T16:54:29.764Z,19
2023-02-27T16:55:46.722Z,10
2023-02-27T16:57:03.736Z,10
2023-02-27T16:58:20.722Z,10
2023-02-27T16:59:37.747Z,10
2023-02-27T17:00:54.767Z,8
2023-02-27T17:02:11.771Z,9
2023-02-27T17:03:28.734Z,10
2023-02-27T17:04:45.817Z,10
2023-02-27T17:06:02.727Z,10
2023-02-27T17:07:19.761Z,13
2023-02-27T17:08:36.783Z,16
2023-02-27T17:09:53.767Z,12
2023-02-27T17:11:10.766Z,11
2023-02-27T17:12:27.774Z,12
2023-02-27T17:13:44.793Z,10
2023-02-27T17:15:01.776Z,11
2023-02-27T17:16:18.783Z,9
2023-02-27T17:17:35.754Z,9
2023-02-27T17:18:52.737Z,9
2023-02-27T17:20:09.815Z,9
2023-02-27T17:21:26.745Z,9
2023-02-27T17:22:43.745Z,9
2023-02-27T17:24:00.747Z,9
2023-02-27T17:25:17.847Z,9
2023-02-27T17:26:34.774Z,10
2023-02-27T17:27:51.773Z,10
2023-02-27T17:29:08.742Z,10
2023-02-27T17:30:25.801Z,9
2023-02-27T17:31:42.771Z,9
2023-02-27T17:33:01.136Z,8
2023-02-27T17:34:17.088Z,6
2023-02-27T17:35:33.794Z,6
2023-02-27T17:36:50.778Z,8
2023-02-27T17:38:07.785Z,8
2023-02-27T17:39:24.827Z,9
2023-02-27T17:40:41.786Z,10
2023-02-27T17:41:58.762Z,10
2023-02-27T17:43:15.836Z,14
2023-02-27T17:44:32.859Z,14
2023-02-27T17:45:49.812Z,14
2023-02-27T17:47:06.785Z,14
2023-02-27T17:48:23.781Z,13
2023-02-27T17:49:40.815Z,13
2023-02-27T17:50:57.798Z,13
2023-02-27T17:52:14.824Z,10
2023-02-27T17:53:31.793Z,8
2023-02-27T17:54:48.815Z,6
2023-02-27T17:56:05.809Z,6
2023-02-27T17:57:22.773Z,8
2023-02-27T17:58:39.844Z,6
2023-02-27T17:59:56.881Z,6
2023-02-27T18:01:13.852Z,6
2023-02-27T18:02:30.841Z,8
2023-02-27T18:03:47.786Z,9
2023-02-27T18:05:04.832Z,10
2023-02-27T18:06:21.839Z,12
2023-02-27T18:07:38.790Z,12
2023-02-27T18:08:55.871Z,12
2023-02-27T18:10:12.853Z,12
2023-02-27T18:11:29.830Z,12
2023-02-27T18:12:46.809Z,14
2023-02-27T18:14:03.854Z,13
2023-02-27T18:15:20.857Z,12
2023-02-27T18:16:37.955Z,11
2023-02-27T18:17:54.831Z,9
2023-02-27T18:19:11.801Z,9
2023-02-27T18:20:28.857Z,6
2023-02-27T18:21:45.824Z,5
2023-02-27T18:23:02.935Z,4
2023-02-27T18:24:19.809Z,4
2023-02-27T18:25:36.851Z,3
2023-02-27T18:26:53.822Z,3
2023-02-27T18:28:10.850Z,3
2023-02-27T18:29:27.847Z,3
2023-02-27T18:30:44.856Z,3
2023-02-27T18:32:01.873Z,5
2023-02-27T18:33:18.850Z,5
2023-02-27T18:34:35.814Z,5
2023-02-27T18:35:53.015Z,6
2023-02-27T18:37:09.855Z,8
2023-02-27T18:38:26.877Z,10
2023-02-27T18:39:43.862Z,11
2023-02-27T18:41:00.852Z,13
2023-02-27T18:42:17.843Z,14
2023-02-27T18:43:34.848Z,13
2023-02-27T18:44:51.891Z,14